Time;durP1;ratioP1;P1;durP2;ratioP2;P2;SDS_P1;SDS_P2;PMS_P1;PMS_P2;Temp;Humidity;BMP_temperature;BMP_pressure;BME280_temperature;BME280_humidity;BME280_pressure;Samples;Min_cycle;Max_cycle;Signal;HPM_P1;HPM_P2
2021/06/11 00:00:33;;;;;;;48.58;14.90;;;;;;;15.70;90.95;102060.75;5132706;27;20133;-51
2021/06/11 00:03:01;;;;;;;26.52;13.10;;;;;;;15.69;91.06;102064.72;5132712;27;20119;-54
2021/06/11 00:05:28;;;;;;;41.53;12.43;;;;;;;15.62;91.15;102064.25;5131794;27;20452;-54
2021/06/11 00:07:57;;;;;;;48.10;11.88;;;;;;;15.55;91.33;102063.78;5132492;27;20043;-53
2021/06/11 00:10:24;;;;;;;27.55;11.93;;;;;;;15.47;91.58;102056.00;5132460;27;20055;-47
2021/06/11 00:12:51;;;;;;;75.90;12.02;;;;;;;15.46;91.97;102057.16;5131942;27;20039;-53
2021/06/11 00:15:19;;;;;;;48.00;12.35;;;;;;;15.42;92.05;102051.28;5132281;27;20085;-55
2021/06/11 00:17:46;;;;;;;43.38;12.48;;;;;;;15.41;92.28;102052.44;5131943;27;20047;-51
2021/06/11 00:20:14;;;;;;;44.92;13.98;;;;;;;15.40;92.45;102052.72;5131671;27;20066;-50
2021/06/11 00:22:41;;;;;;;28.45;14.55;;;;;;;15.40;92.47;102050.75;5132262;27;20046;-51
2021/06/11 00:25:13;;;;;;;50.65;15.85;;;;;;;15.39;92.75;102051.88;5131765;27;20154;-53
2021/06/11 00:27:41;;;;;;;;;;;;;;;15.27;92.96;102056.28;5132114;27;20495;-48
2021/06/11 00:30:10;;;;;;;39.60;9.95;;;;;;;15.23;93.34;102050.44;5132116;27;19954;-53
2021/06/11 00:32:39;;;;;;;22.98;6.65;;;;;;;15.21;92.90;102049.06;5131417;27;20077;-49
2021/06/11 00:35:07;;;;;;;26.42;6.15;;;;;;;15.13;92.92;102044.97;5131565;27;20039;-55
2021/06/11 00:37:35;;;;;;;13.32;5.28;;;;;;;15.07;93.02;102035.75;5132078;27;20047;-52
2021/06/11 00:40:05;;;;;;;18.45;6.47;;;;;;;15.06;93.38;102039.69;5118842;27;20051;-54
2021/06/11 00:42:34;;;;;;;17.80;6.32;;;;;;;15.05;93.35;102031.56;5119011;28;20097;-53
2021/06/11 00:45:02;;;;;;;21.35;6.82;;;;;;;15.04;93.37;102029.88;5122533;28;20047;-51
2021/06/11 00:47:30;;;;;;;15.27;6.43;;;;;;;15.04;93.26;102021.44;5125171;28;20051;-51
2021/06/11 00:49:57;;;;;;;18.33;7.32;;;;;;;15.02;93.20;102026.53;5132096;28;20072;-51
2021/06/11 00:52:25;;;;;;;22.10;7.50;;;;;;;15.02;93.39;102020.91;5131996;28;20108;-53
2021/06/11 00:54:52;;;;;;;30.25;8.00;;;;;;;15.00;93.11;102032.44;5128842;27;20075;-49
2021/06/11 00:57:20;;;;;;;22.58;8.23;;;;;;;14.98;93.31;102022.66;5121524;28;20043;-49
2021/06/11 00:59:48;;;;;;;28.98;9.00;;;;;;;14.96;93.23;102016.50;5131567;27;20461;-50
2021/06/11 01:02:16;;;;;;;32.58;8.95;;;;;;;14.92;93.30;102007.84;5131037;28;20092;-53
2021/06/11 01:04:43;;;;;;;51.65;9.70;;;;;;;14.91;93.44;102002.50;5131624;28;20073;-52
2021/06/11 01:07:11;;;;;;;22.13;8.45;;;;;;;14.84;93.45;102000.06;5131199;28;20142;-50
2021/06/11 01:09:41;;;;;;;35.50;9.35;;;;;;;14.81;93.66;102004.28;5131825;28;20035;-55
2021/06/11 01:12:10;;;;;;;16.27;7.63;;;;;;;14.80;93.78;102002.63;5118820;28;20438;-53
2021/06/11 01:14:40;;;;;;;48.08;10.10;;;;;;;14.78;93.74;101992.84;5131088;27;20072;-49
2021/06/11 01:17:10;;;;;;;17.10;8.60;;;;;;;14.75;93.79;101999.06;5131663;27;20469;-49
2021/06/11 01:19:40;;;;;;;17.50;7.57;;;;;;;14.74;94.18;101994.56;5131740;27;20136;-51
2021/06/11 01:22:13;;;;;;;82.47;10.27;;;;;;;14.70;94.34;101991.53;5131144;27;20415;-52
2021/06/11 01:24:56;;;;;;;32.78;8.98;;;;;;;14.69;94.30;101989.84;5128092;27;20035;-49
2021/06/11 01:27:27;;;;;;;19.60;6.65;;;;;;;14.64;94.54;101986.25;5131696;27;20086;-47
2021/06/11 01:29:57;;;;;;;22.70;8.25;;;;;;;14.64;94.74;101987.09;5131200;27;20043;-49
2021/06/11 01:32:25;;;;;;;29.73;7.43;;;;;;;14.64;94.89;101981.47;5130229;28;20059;-53
2021/06/11 01:34:53;;;;;;;52.50;7.90;;;;;;;14.60;94.67;101986.00;5130529;28;20064;-50
2021/06/11 01:37:24;;;;;;;14.02;5.93;;;;;;;14.56;94.71;101989.75;5119981;28;20051;-49
2021/06/11 01:39:55;;;;;;;21.27;7.88;;;;;;;14.54;94.93;101980.78;5131652;28;20047;-50
2021/06/11 01:42:23;;;;;;;43.78;8.38;;;;;;;14.55;95.16;101990.88;5131131;28;20053;-53
2021/06/11 01:44:54;;;;;;;44.65;8.30;;;;;;;14.49;95.02;101987.28;5131179;27;20151;-48
2021/06/11 01:47:23;;;;;;;57.38;9.05;;;;;;;14.43;95.17;101986.50;5133610;27;20047;-54
2021/06/11 01:49:51;;;;;;;48.05;8.90;;;;;;;14.39;95.31;101995.78;5134200;27;20063;-52
2021/06/11 01:52:20;;;;;;;42.33;9.65;;;;;;;14.39;95.58;101993.78;5135390;27;20134;-54
2021/06/11 01:54:48;;;;;;;34.38;9.20;;;;;;;14.41;95.43;101993.53;5135115;27;20073;-50
2021/06/11 01:57:16;;;;;;;24.50;9.73;;;;;;;14.43;95.65;101996.88;5134332;27;20086;-56
2021/06/11 01:59:44;;;;;;;28.67;10.75;;;;;;;14.42;95.87;101986.78;5135131;27;20042;-51
2021/06/11 02:02:13;;;;;;;19.40;9.55;;;;;;;14.44;95.80;102001.38;5134821;27;20522;-54
2021/06/11 02:04:42;;;;;;;23.52;10.07;;;;;;;14.43;96.00;102003.34;5134760;27;20039;-46
2021/06/11 02:07:10;;;;;;;46.58;13.13;;;;;;;14.41;95.86;101994.38;5134870;27;20100;-52
2021/06/11 02:09:39;;;;;;;47.28;10.75;;;;;;;14.43;96.20;101994.06;5134923;27;20058;-49
2021/06/11 02:12:09;;;;;;;31.40;10.57;;;;;;;14.41;96.13;101987.91;5134141;27;20403;-50
2021/06/11 02:14:37;;;;;;;46.15;12.48;;;;;;;14.41;96.32;101983.13;5134541;27;20077;-51
2021/06/11 02:17:07;;;;;;;35.35;10.63;;;;;;;14.40;96.33;101986.22;5134578;27;20085;-50
2021/06/11 02:19:38;;;;;;;28.20;10.10;;;;;;;14.42;96.45;101987.63;5133864;27;20581;-52
2021/06/11 02:22:06;;;;;;;38.35;10.88;;;;;;;14.43;96.49;101980.03;5134673;27;20505;-52
2021/06/11 02:24:33;;;;;;;24.02;10.07;;;;;;;14.45;96.41;101980.56;5133912;27;20136;-52
2021/06/11 02:27:02;;;;;;;32.35;11.32;;;;;;;14.49;96.72;101981.66;5134362;27;20158;-49
2021/06/11 02:29:30;;;;;;;24.85;10.88;;;;;;;14.53;96.65;101979.94;5134337;27;20464;-50
2021/06/11 02:31:57;;;;;;;28.48;11.00;;;;;;;14.53;96.62;101968.69;5133910;27;20050;-48
2021/06/11 02:34:25;;;;;;;24.77;10.95;;;;;;;14.55;96.83;101965.59;5134664;27;20296;-54
2021/06/11 02:36:54;;;;;;;35.33;9.70;;;;;;;14.57;96.65;101966.97;5134183;27;20040;-52
2021/06/11 02:39:21;;;;;;;37.53;10.65;;;;;;;14.58;96.84;101960.22;5122575;27;20055;-50
2021/06/11 02:41:54;;;;;;;43.67;10.32;;;;;;;14.56;96.85;101965.28;5133674;27;20054;-50
2021/06/11 02:44:24;;;;;;;30.02;10.35;;;;;;;14.53;96.98;101960.28;5134414;27;20124;-49
2021/06/11 02:46:56;;;;;;;33.45;10.93;;;;;;;14.52;97.20;101952.16;5133487;27;20148;-51
2021/06/11 02:49:30;;;;;;;44.85;9.75;;;;;;;14.54;97.27;101953.53;5134501;27;20060;-49
2021/06/11 02:52:02;;;;;;;25.08;8.88;;;;;;;14.53;97.58;101954.66;5133771;27;20114;-49
2021/06/11 02:54:32;;;;;;;;;;;;;;;14.46;97.37;101956.97;5131113;27;20096;-49
2021/06/11 02:57:05;;;;;;;21.35;7.20;;;;;;;14.46;98.01;101952.19;5129681;27;19963;-50
2021/06/11 02:59:34;;;;;;;33.80;8.43;;;;;;;14.53;97.79;101957.47;5132768;27;20047;-49
2021/06/11 03:02:06;;;;;;;25.27;8.05;;;;;;;14.56;97.78;101968.09;5133390;27;20055;-50
2021/06/11 03:04:36;;;;;;;22.05;8.23;;;;;;;14.60;97.96;101963.53;5133190;27;20066;-49
2021/06/11 03:07:06;;;;;;;20.35;8.45;;;;;;;14.65;97.85;101971.91;5132753;27;20100;-54
2021/06/11 03:09:35;;;;;;;21.58;9.18;;;;;;;14.71;97.86;101975.50;5133425;27;20512;-52
2021/06/11 03:12:05;;;;;;;21.98;9.15;;;;;;;14.73;98.06;101976.03;5133170;27;20077;-51
2021/06/11 03:14:35;;;;;;;17.88;7.15;;;;;;;14.78;98.05;101971.19;5132743;27;20061;-52
2021/06/11 03:17:03;;;;;;;21.23;8.23;;;;;;;14.82;97.98;101969.44;5133299;27;20035;-50
2021/06/11 03:19:35;;;;;;;21.08;8.00;;;;;;;14.86;98.00;101969.69;5133219;27;20138;-53
2021/06/11 03:22:08;;;;;;;19.05;6.88;;;;;;;14.88;98.09;101980.63;5132940;27;20054;-52
2021/06/11 03:24:41;;;;;;;21.75;7.53;;;;;;;14.93;98.00;101986.19;5133167;27;20035;-55
2021/06/11 03:27:14;;;;;;;34.78;8.15;;;;;;;14.95;98.35;101981.94;5132934;27;20039;-56
2021/06/11 03:29:45;;;;;;;25.58;6.68;;;;;;;14.97;98.33;101976.03;5132462;27;20043;-52
2021/06/11 03:32:19;;;;;;;23.95;6.93;;;;;;;15.01;98.24;101971.44;5132997;27;20047;-48
2021/06/11 03:34:49;;;;;;;17.08;6.40;;;;;;;15.01;98.56;101969.47;5132931;27;20051;-51
2021/06/11 03:37:19;;;;;;;23.83;7.40;;;;;;;15.06;98.68;101972.22;5133031;27;20127;-49
2021/06/11 03:39:51;;;;;;;41.40;9.40;;;;;;;15.07;98.84;101975.88;5132940;27;20574;-51
2021/06/11 03:42:19;;;;;;;26.92;8.30;;;;;;;15.06;98.75;101972.22;5132391;27;20067;-53
2021/06/11 03:44:49;;;;;;;20.25;7.85;;;;;;;15.06;98.82;101977.84;5123025;27;20047;-50
2021/06/11 03:47:19;;;;;;;25.00;7.80;;;;;;;15.09;98.77;101970.78;5133040;27;20099;-54
2021/06/11 03:49:49;;;;;;;34.60;8.57;;;;;;;15.10;98.92;101976.09;5132194;27;20151;-48
2021/06/11 03:52:23;;;;;;;25.60;7.80;;;;;;;15.11;98.86;101982.56;5132861;27;20081;-50
2021/06/11 03:54:52;;;;;;;24.25;7.68;;;;;;;15.10;99.05;101980.88;5132682;27;20035;-49
2021/06/11 03:57:21;;;;;;;27.73;7.88;;;;;;;15.10;99.04;101978.06;5132397;27;20104;-50
2021/06/11 03:59:49;;;;;;;29.52;7.38;;;;;;;15.08;99.09;101980.34;5128899;27;20061;-51
2021/06/11 04:02:17;;;;;;;34.95;6.90;;;;;;;15.06;99.27;101972.22;5132783;27;20070;-50
2021/06/11 04:04:45;;;;;;;38.25;8.18;;;;;;;15.05;99.39;101978.97;5131635;27;20077;-50
2021/06/11 04:07:18;;;;;;;36.50;8.63;;;;;;;15.06;99.46;101972.22;5132487;27;20043;-53
2021/06/11 04:09:49;;;;;;;22.88;7.22;;;;;;;15.03;99.64;101977.59;5132443;27;20143;-49
2021/06/11 04:12:21;;;;;;;23.08;7.03;;;;;;;15.03;99.78;101984.06;5132029;27;20054;-51
2021/06/11 04:14:51;;;;;;;29.45;6.90;;;;;;;15.02;99.82;101978.75;5132201;27;20054;-51
2021/06/11 04:17:23;;;;;;;18.77;6.55;;;;;;;14.99;100.00;101982.97;5131776;27;20038;-52
2021/06/11 04:19:54;;;;;;;18.10;6.65;;;;;;;14.99;99.97;101980.19;5132312;27;20552;-50
2021/06/11 04:22:24;;;;;;;21.25;7.68;;;;;;;14.97;100.00;101979.66;5128958;27;20070;-49
2021/06/11 04:24:55;;;;;;;18.42;6.28;;;;;;;14.99;100.00;101987.78;5131681;27;20043;-48
2021/06/11 04:27:23;;;;;;;17.25;6.28;;;;;;;15.00;100.00;101993.09;5132236;27;20504;-53
2021/06/11 04:29:51;;;;;;;20.50;6.20;;;;;;;14.98;100.00;101986.13;5132234;27;20079;-48
2021/06/11 04:32:19;;;;;;;29.52;6.97;;;;;;;14.96;100.00;101983.63;5131140;27;20067;-51
2021/06/11 04:34:47;;;;;;;14.82;5.35;;;;;;;14.94;100.00;101977.47;5132142;27;20064;-48
2021/06/11 04:37:19;;;;;;;14.25;5.65;;;;;;;14.96;100.00;101983.63;5132202;27;20062;-47
2021/06/11 04:39:46;;;;;;;29.55;6.72;;;;;;;14.96;100.00;101988.41;5121463;27;20043;-51
2021/06/11 04:42:15;;;;;;;25.13;7.38;;;;;;;14.95;100.00;101975.47;5131745;27;20047;-49
2021/06/11 04:44:43;;;;;;;24.85;6.40;;;;;;;14.96;100.00;101977.16;5131456;27;20500;-54
2021/06/11 04:47:10;;;;;;;17.52;6.47;;;;;;;14.95;100.00;101976.31;5131420;27;20054;-50
2021/06/11 04:49:38;;;;;;;28.48;6.57;;;;;;;14.93;100.00;101977.75;5132031;28;20043;-50
2021/06/11 04:52:06;;;;;;;18.40;6.15;;;;;;;14.95;100.00;101969.88;5131903;28;20086;-51
2021/06/11 04:54:33;;;;;;;20.08;6.82;;;;;;;14.96;100.00;101971.53;5131485;28;20036;-51
2021/06/11 04:57:01;;;;;;;24.13;6.57;;;;;;;14.96;100.00;101978.00;5130714;28;20070;-49
2021/06/11 04:59:30;;;;;;;25.42;6.65;;;;;;;14.95;100.00;101978.28;5130916;28;20043;-51
2021/06/11 05:01:57;;;;;;;16.73;6.85;;;;;;;14.97;100.00;101974.03;5131708;27;20069;-49
2021/06/11 05:04:25;;;;;;;23.88;6.68;;;;;;;15.00;100.00;101972.56;5119512;28;20064;-51
2021/06/11 05:06:55;;;;;;;15.52;6.57;;;;;;;15.03;100.00;101971.97;5130092;28;20043;-54
2021/06/11 05:09:22;;;;;;;16.25;6.93;;;;;;;15.07;100.00;101973.06;5132035;28;20458;-53
2021/06/11 05:11:50;;;;;;;13.70;5.93;;;;;;;15.11;100.00;101971.31;5131400;27;20047;-55
2021/06/11 05:14:17;;;;;;;15.65;6.07;;;;;;;15.13;100.00;101975.50;5131477;27;20075;-52
2021/06/11 05:16:46;;;;;;;15.15;6.75;;;;;;;15.14;100.00;101973.53;5131503;27;20078;-52
2021/06/11 05:19:14;;;;;;;13.90;6.85;;;;;;;15.15;100.00;101984.47;5131642;27;20061;-53
2021/06/11 05:21:42;;;;;;;17.55;7.60;;;;;;;15.18;100.00;101982.19;5132385;27;20051;-51
2021/06/11 05:24:09;;;;;;;12.35;6.75;;;;;;;15.22;100.00;101977.63;5118200;27;20564;-50
2021/06/11 05:26:36;;;;;;;14.50;7.47;;;;;;;15.25;100.00;101980.66;5135534;27;20088;-51
2021/06/11 05:29:04;;;;;;;15.02;6.88;;;;;;;15.30;99.88;101974.97;5135181;27;20389;-50
2021/06/11 05:31:31;;;;;;;13.13;7.22;;;;;;;15.34;99.91;101978.84;5135534;27;20442;-52
2021/06/11 05:34:00;;;;;;;15.45;7.43;;;;;;;15.41;100.00;101989.69;5135418;27;20054;-50
2021/06/11 05:36:27;;;;;;;13.85;8.02;;;;;;;15.47;99.79;101994.13;5134632;27;20043;-55
2021/06/11 05:38:55;;;;;;;13.65;7.50;;;;;;;15.49;99.75;101989.88;5135200;27;20058;-54
2021/06/11 05:41:23;;;;;;;14.23;7.95;;;;;;;15.51;99.62;101992.38;5135324;27;20066;-53
2021/06/11 05:43:51;;;;;;;14.20;7.53;;;;;;;15.54;99.51;101986.16;5135447;27;20035;-56
2021/06/11 05:46:19;;;;;;;18.42;7.45;;;;;;;15.56;99.49;101988.69;5135184;27;20073;-49
2021/06/11 05:48:47;;;;;;;21.02;7.63;;;;;;;15.54;99.19;101994.59;5117926;27;20114;-50
2021/06/11 05:51:16;;;;;;;10.50;6.85;;;;;;;15.49;99.19;101994.66;5135051;27;20058;-53
2021/06/11 05:53:43;;;;;;;17.55;6.25;;;;;;;15.47;99.14;101996.94;5134741;27;20069;-53
2021/06/11 05:56:12;;;;;;;17.30;7.40;;;;;;;15.47;99.52;101999.75;5120254;27;20052;-52
2021/06/11 05:58:39;;;;;;;22.73;7.15;;;;;;;15.44;99.35;102001.19;5134218;27;20388;-52
2021/06/11 06:01:07;;;;;;;13.80;7.50;;;;;;;15.47;99.38;101994.97;5135201;27;20096;-52
2021/06/11 06:03:35;;;;;;;18.02;6.90;;;;;;;15.54;99.49;101994.59;5134040;27;20047;-52
2021/06/11 06:06:02;;;;;;;15.57;6.30;;;;;;;15.60;99.42;101996.19;5134710;27;20043;-56
2021/06/11 06:08:31;;;;;;;15.32;6.38;;;;;;;15.62;99.05;101998.69;5132830;27;20043;-54
2021/06/11 06:10:58;;;;;;;10.57;5.78;;;;;;;15.64;99.04;102000.06;5130817;27;20050;-53
2021/06/11 06:13:26;;;;;;;11.80;5.60;;;;;;;15.70;99.08;101993.22;5134683;27;20051;-54
2021/06/11 06:15:54;;;;;;;17.50;5.60;;;;;;;15.72;98.65;101996.56;5134603;27;20119;-53
2021/06/11 06:18:21;;;;;;;9.82;5.38;;;;;;;15.69;98.32;101990.72;5133962;27;20051;-51
2021/06/11 06:20:49;;;;;;;8.25;5.28;;;;;;;15.72;98.42;101995.75;5134281;27;20086;-50
2021/06/11 06:23:16;;;;;;;8.63;4.80;;;;;;;15.75;98.53;101987.53;5134551;27;20035;-50
2021/06/11 06:25:45;;;;;;;9.40;5.70;;;;;;;15.78;98.15;101988.91;5133750;27;20043;-50
2021/06/11 06:28:13;;;;;;;9.35;5.07;;;;;;;15.79;98.04;101988.56;5134240;27;20051;-49
2021/06/11 06:30:41;;;;;;;8.55;4.90;;;;;;;15.87;98.04;101987.03;5133807;27;20075;-48
2021/06/11 06:33:08;;;;;;;10.07;5.10;;;;;;;15.91;97.88;101984.44;5132628;27;20035;-49
2021/06/11 06:35:37;;;;;;;14.02;6.38;;;;;;;15.95;97.52;101993.94;5134509;27;20107;-50
2021/06/11 06:38:05;;;;;;;8.73;5.15;;;;;;;15.98;97.36;101994.19;5133643;27;20403;-51
2021/06/11 06:40:32;;;;;;;10.35;5.68;;;;;;;16.03;97.30;101996.88;5134236;27;20039;-49
2021/06/11 06:43:01;;;;;;;9.05;4.90;;;;;;;16.08;97.10;101996.81;5134074;27;20070;-51
2021/06/11 06:45:28;;;;;;;8.60;4.68;;;;;;;16.10;96.77;101993.69;5132974;27;20096;-50
2021/06/11 06:47:56;;;;;;;15.02;4.93;;;;;;;16.14;96.74;102000.38;5133927;27;20562;-49
2021/06/11 06:50:24;;;;;;;9.02;5.65;;;;;;;16.17;96.60;102000.59;5127383;27;20047;-53
2021/06/11 06:52:55;;;;;;;11.98;6.03;;;;;;;16.19;96.39;102014.34;5133726;27;20047;-50
2021/06/11 06:55:23;;;;;;;13.73;5.40;;;;;;;16.12;96.22;102003.50;5133864;27;20130;-50
2021/06/11 06:57:50;;;;;;;8.20;5.10;;;;;;;16.12;96.17;102008.28;5133936;27;20050;-54
2021/06/11 07:00:20;;;;;;;9.85;5.18;;;;;;;16.12;95.99;102016.72;5132960;27;20046;-51
2021/06/11 07:02:47;;;;;;;10.80;5.78;;;;;;;16.11;96.15;102007.44;5133848;27;20043;-56
2021/06/11 07:05:16;;;;;;;7.15;4.28;;;;;;;16.12;96.03;102006.31;5133439;27;20419;-47
2021/06/11 07:07:43;;;;;;;8.38;4.80;;;;;;;16.18;96.05;102004.25;5132081;27;20054;-51
2021/06/11 07:10:11;;;;;;;8.90;5.70;;;;;;;16.22;95.71;102010.06;5133580;27;20051;-54
2021/06/11 07:12:39;;;;;;;7.40;4.80;;;;;;;16.27;95.56;102009.97;5133066;27;20069;-52
2021/06/11 07:15:09;;;;;;;6.28;4.50;;;;;;;16.26;95.14;102011.13;5132898;27;20130;-52
2021/06/11 07:17:38;;;;;;;10.93;6.10;;;;;;;16.26;94.90;102023.22;5133266;27;20511;-53
2021/06/11 07:20:07;;;;;;;6.57;4.10;;;;;;;16.20;94.53;102019.66;5132616;27;20043;-48
2021/06/11 07:22:35;;;;;;;8.77;4.90;;;;;;;16.20;94.78;102019.66;5133313;27;20072;-49
2021/06/11 07:25:05;;;;;;;9.07;5.15;;;;;;;16.22;94.68;102012.88;5133162;27;20040;-51
2021/06/11 07:27:34;;;;;;;6.93;4.80;;;;;;;16.20;94.62;102013.19;5132556;27;20051;-54
2021/06/11 07:30:04;;;;;;;7.30;4.82;;;;;;;16.27;94.58;102019.28;5133225;27;20471;-53
2021/06/11 07:32:31;;;;;;;8.02;5.15;;;;;;;16.35;94.34;102012.94;5133017;27;20491;-53
2021/06/11 07:35:00;;;;;;;7.57;4.72;;;;;;;16.42;93.83;102012.50;5132714;27;20043;-52
2021/06/11 07:37:27;;;;;;;9.05;4.95;;;;;;;16.48;93.69;102014.94;5132143;27;20063;-55
2021/06/11 07:39:55;;;;;;;8.80;5.80;;;;;;;16.54;93.25;101998.75;5132527;27;20055;-51
2021/06/11 07:42:23;;;;;;;7.90;5.25;;;;;;;16.57;92.96;102000.97;5132305;27;20408;-51
2021/06/11 07:44:51;;;;;;;8.30;5.15;;;;;;;16.66;92.86;101998.28;5132467;27;20415;-53
2021/06/11 07:47:18;;;;;;;7.80;5.47;;;;;;;16.75;92.59;102002.88;5132600;27;20125;-49
2021/06/11 07:49:45;;;;;;;8.38;5.47;;;;;;;16.86;92.58;101987.41;5132165;27;20051;-53
2021/06/11 07:52:14;;;;;;;10.35;6.28;;;;;;;17.01;91.92;101993.88;5116120;27;20043;-52
2021/06/11 07:54:41;;;;;;;8.05;5.30;;;;;;;17.09;91.08;101990.31;5132943;27;20043;-54
2021/06/11 07:57:10;;;;;;;7.47;5.20;;;;;;;17.12;90.86;101986.88;5131883;27;20117;-53
2021/06/11 07:59:37;;;;;;;8.15;5.57;;;;;;;17.11;90.48;101993.66;5129439;27;20043;-48
2021/06/11 08:02:04;;;;;;;7.68;5.15;;;;;;;17.17;90.47;101987.59;5131871;27;20047;-47
2021/06/11 08:04:32;;;;;;;8.80;5.40;;;;;;;17.23;90.08;102005.22;5132313;27;20600;-50
2021/06/11 08:06:59;;;;;;;7.95;5.47;;;;;;;17.16;89.65;101999.19;5132071;27;20043;-50
2021/06/11 08:09:29;;;;;;;8.00;5.30;;;;;;;17.06;89.72;102005.03;5131810;27;20130;-51
2021/06/11 08:11:57;;;;;;;7.93;5.40;;;;;;;17.00;89.82;102004.31;5132505;27;20076;-53
2021/06/11 08:14:24;;;;;;;10.20;5.75;;;;;;;17.09;90.08;102008.06;5132340;27;20039;-50
2021/06/11 08:16:52;;;;;;;7.55;5.35;;;;;;;17.12;89.46;102012.25;5131728;27;20547;-49
2021/06/11 08:19:19;;;;;;;8.45;5.45;;;;;;;17.16;89.48;102013.31;5132213;27;20549;-47
2021/06/11 08:21:47;;;;;;;9.02;5.63;;;;;;;17.13;88.85;102011.09;5132248;27;20046;-47
2021/06/11 08:24:14;;;;;;;8.63;5.10;;;;;;;17.07;88.97;102016.00;5131536;27;20039;-48
2021/06/11 08:26:43;;;;;;;8.98;6.20;;;;;;;17.05;89.08;102011.84;5132087;27;20039;-49
2021/06/11 08:29:10;;;;;;;7.82;5.75;;;;;;;17.11;89.07;102022.69;5132139;27;20100;-48
2021/06/11 08:31:38;;;;;;;8.80;5.35;;;;;;;17.20;88.90;102017.13;5131559;27;20078;-53
2021/06/11 08:34:05;;;;;;;9.70;5.95;;;;;;;17.26;88.60;102035.63;5131770;27;20047;-47
2021/06/11 08:36:32;;;;;;;8.65;5.95;;;;;;;17.23;88.32;102019.31;5132086;27;20039;-54
2021/06/11 08:39:00;;;;;;;7.75;5.00;;;;;;;17.30;88.55;102033.84;5131430;27;20050;-55
2021/06/11 08:41:29;;;;;;;10.65;6.53;;;;;;;17.32;88.00;102017.44;5132205;27;20124;-53
2021/06/11 08:43:59;;;;;;;9.40;5.32;;;;;;;17.23;88.06;102010.88;5132388;27;20047;-51
2021/06/11 08:46:27;;;;;;;7.93;5.18;;;;;;;17.23;88.47;102008.03;5131010;27;20051;-54
2021/06/11 08:48:57;;;;;;;8.35;5.28;;;;;;;17.37;88.36;102011.69;5131871;27;20047;-49
2021/06/11 08:51:24;;;;;;;10.95;5.60;;;;;;;17.50;87.57;102008.00;5131491;27;20051;-56
2021/06/11 08:53:52;;;;;;;9.68;5.45;;;;;;;17.56;87.19;102015.19;5131742;28;20067;-52
2021/06/11 08:56:19;;;;;;;8.95;6.15;;;;;;;17.50;87.06;101996.69;5131198;27;20384;-55
2021/06/11 08:58:49;;;;;;;10.55;6.05;;;;;;;17.63;87.12;102013.91;5135475;27;20062;-53
2021/06/11 09:01:17;;;;;;;8.95;5.22;;;;;;;17.75;86.45;102017.88;5121711;27;20477;-58
2021/06/11 09:03:47;;;;;;;7.18;4.38;;;;;;;17.78;85.92;102013.59;5135986;27;20100;-54
2021/06/11 09:06:14;;;;;;;7.05;4.00;;;;;;;17.86;85.90;102024.94;5135379;27;20043;-52
2021/06/11 09:08:50;;;;;;;10.13;5.90;;;;;;;17.79;84.87;102015.22;5135883;27;20047;-51
2021/06/11 09:11:19;;;;;;;7.85;4.75;;;;;;;17.90;85.54;102022.31;5135616;27;20177;-57
2021/06/11 09:13:50;;;;;;;8.68;4.85;;;;;;;17.89;85.03;102035.59;5135037;27;20119;-51
2021/06/11 09:16:21;;;;;;;9.48;5.03;;;;;;;17.78;84.86;102036.16;5135844;27;20048;-52
2021/06/11 09:18:53;;;;;;;8.95;4.80;;;;;;;17.67;85.01;102044.03;5135486;27;20047;-53
2021/06/11 09:21:33;;;;;;;8.57;5.00;;;;;;;17.62;85.18;102052.56;5134965;27;20039;-48
2021/06/11 09:24:11;;;;;;;9.20;4.43;;;;;;;17.54;85.48;102054.19;5135363;27;20062;-52
2021/06/11 09:26:39;;;;;;;8.43;5.07;;;;;;;17.42;85.47;102053.88;5134988;27;20442;-54
2021/06/11 09:29:20;;;;;;;8.50;5.15;;;;;;;17.26;85.72;102058.19;5135419;27;20511;-49
2021/06/11 09:31:49;;;;;;;7.90;4.95;;;;;;;17.20;86.19;102059.44;5135370;27;20047;-50
2021/06/11 09:34:20;;;;;;;8.32;4.80;;;;;;;17.08;86.22;102060.00;5134611;27;20133;-50
2021/06/11 09:36:58;;;;;;;10.30;5.20;;;;;;;17.05;86.64;102062.59;5135304;27;20039;-51
2021/06/11 09:39:39;;;;;;;7.50;4.60;;;;;;;17.13;87.08;102056.22;5135017;27;20051;-48
2021/06/11 09:42:11;;;;;;;9.35;5.25;;;;;;;17.17;86.75;102060.94;5134644;27;20126;-53
2021/06/11 09:44:38;;;;;;;7.78;4.95;;;;;;;17.14;86.59;102064.38;5134825;27;20083;-50
2021/06/11 09:47:07;;;;;;;7.97;4.97;;;;;;;17.13;86.60;102061.88;5134986;27;20465;-56
2021/06/11 09:49:43;;;;;;;8.38;5.50;;;;;;;17.12;86.64;102068.66;5134823;27;20134;-49
2021/06/11 09:52:12;;;;;;;8.20;4.82;;;;;;;17.16;86.90;102066.88;5135145;27;20067;-50
2021/06/11 09:54:40;;;;;;;9.57;5.20;;;;;;;17.09;86.74;102070.13;5134511;27;20047;-53
2021/06/11 09:57:21;;;;;;;8.02;5.15;;;;;;;17.04;86.97;102069.38;5134417;27;20040;-49
2021/06/11 09:59:49;;;;;;;10.75;6.32;;;;;;;17.02;87.18;102069.69;5134767;27;20460;-50
2021/06/11 10:02:19;;;;;;;8.55;5.47;;;;;;;17.05;87.33;102076.69;5134219;27;20129;-59
2021/06/11 10:04:47;;;;;;;9.48;5.15;;;;;;;17.22;87.36;102057.16;5134706;27;20146;-53
2021/06/11 10:07:15;;;;;;;11.23;6.10;;;;;;;17.29;86.67;102068.03;5134093;27;20083;-54
2021/06/11 10:09:42;;;;;;;11.18;6.45;;;;;;;17.23;86.21;102058.81;5133957;27;20096;-57
2021/06/11 10:12:11;;;;;;;10.73;6.45;;;;;;;17.31;86.33;102062.91;5133958;27;20066;-48
2021/06/11 10:14:39;;;;;;;7.65;4.90;;;;;;;17.45;86.41;102055.22;5134742;27;20049;-55
2021/06/11 10:17:08;;;;;;;9.77;6.15;;;;;;;17.56;85.98;102059.53;5133583;27;20043;-55
2021/06/11 10:19:38;;;;;;;12.30;6.80;;;;;;;17.52;85.61;102061.28;5134435;27;20453;-55
2021/06/11 10:22:06;;;;;;;10.85;6.30;;;;;;;17.51;85.56;102056.81;5120984;27;20104;-51
2021/06/11 10:24:34;;;;;;;10.48;5.93;;;;;;;17.50;85.85;102046.66;5133612;27;20055;-49
2021/06/11 10:27:02;;;;;;;14.38;7.72;;;;;;;17.56;85.48;102051.03;5134124;27;20104;-49
2021/06/11 10:29:30;;;;;;;10.73;6.70;;;;;;;17.54;85.28;102047.72;5134212;27;20051;-53
2021/06/11 10:31:58;;;;;;;11.93;6.43;;;;;;;17.49;85.14;102056.28;5133482;27;20399;-48
2021/06/11 10:34:51;;;;;;;10.93;6.43;;;;;;;17.50;85.38;102046.66;5134029;27;20043;-55
2021/06/11 10:37:36;;;;;;;12.52;7.05;;;;;;;17.39;85.33;102043.22;5133349;27;20069;-49
2021/06/11 10:40:14;;;;;;;11.25;6.88;;;;;;;17.44;85.62;102045.94;5134378;27;20039;-49
2021/06/11 10:42:41;;;;;;;9.60;5.63;;;;;;;17.48;85.68;102044.16;5133374;27;20054;-58
2021/06/11 10:45:12;;;;;;;10.05;6.13;;;;;;;17.53;85.34;102043.22;5132916;27;20059;-50
2021/06/11 10:47:53;;;;;;;10.13;6.03;;;;;;;17.58;84.99;102047.91;5133667;27;20065;-52
2021/06/11 10:50:34;;;;;;;10.20;6.60;;;;;;;17.55;84.88;102044.56;5130722;27;20165;-53
2021/06/11 10:53:14;;;;;;;12.93;7.45;;;;;;;17.52;84.70;102042.38;5132931;27;20047;-55
2021/06/11 10:55:50;;;;;;;12.50;8.18;;;;;;;17.60;84.63;102057.69;5124088;27;20070;-51
2021/06/11 10:58:25;;;;;;;13.05;7.88;;;;;;;17.64;84.52;102047.47;5130979;27;20055;-52
2021/06/11 11:00:53;;;;;;;12.02;6.95;;;;;;;17.77;84.64;102045.78;5113269;27;20100;-56
2021/06/11 11:03:38;;;;;;;11.48;6.85;;;;;;;17.76;84.06;102063.88;5130083;27;20100;-53
2021/06/11 11:06:28;;;;;;;9.48;5.78;;;;;;;17.75;84.13;102071.53;5131798;27;20084;-49
2021/06/11 11:08:58;;;;;;;10.85;6.30;;;;;;;17.76;84.36;102067.53;5133130;27;20120;-54
2021/06/11 11:11:31;;;;;;;10.35;5.68;;;;;;;17.79;83.87;102080.16;5121996;27;20059;-55
2021/06/11 11:13:59;;;;;;;11.07;5.38;;;;;;;17.75;84.02;102062.22;5132576;27;20031;-55
2021/06/11 11:16:28;;;;;;;10.52;5.40;;;;;;;17.58;83.50;102059.19;5133114;27;20092;-53
2021/06/11 11:18:56;;;;;;;10.40;5.78;;;;;;;17.46;84.22;102052.09;5131899;27;20491;-58
2021/06/11 11:21:27;;;;;;;9.13;5.28;;;;;;;17.36;84.34;102057.16;5119827;27;20111;-51
2021/06/11 11:23:59;;;;;;;11.20;5.85;;;;;;;17.20;84.51;102056.63;5133043;27;20071;-48
2021/06/11 11:26:44;;;;;;;8.90;5.05;;;;;;;17.16;84.82;102069.72;5132518;27;20079;-50
2021/06/11 11:29:14;;;;;;;8.02;4.35;;;;;;;17.17;85.04;102062.94;5132762;27;20108;-54